Time;durP1;ratioP1;P1;durP2;ratioP2;P2;SDS_P1;SDS_P2;PMS_P1;PMS_P2;Temp;Humidity;BMP_temperature;BMP_pressure;BME280_temperature;BME280_humidity;BME280_pressure;Samples;Min_cycle;Max_cycle;Signal;HPM_P1;HPM_P2
2021/09/26 00:01:39;;;;;;;7.85;7.25;;;16.90;99.90;;;17.83;86.54;97981.66;5150309;28;20231;-59
2021/09/26 00:04:12;;;;;;;7.97;7.28;;;16.80;99.90;;;17.92;85.99;97991.41;5160931;28;20637;-63
2021/09/26 00:06:45;;;;;;;7.90;7.30;;;16.80;99.90;;;17.93;85.96;97990.56;5153311;28;20223;-57
2021/09/26 00:09:18;;;;;;;7.72;7.13;;;16.80;99.90;;;17.91;86.00;97987.03;5156692;28;20208;-60
2021/09/26 00:11:51;;;;;;;8.20;7.50;;;16.80;99.90;;;17.90;85.67;97988.75;5150037;28;20228;-60
2021/09/26 00:14:24;;;;;;;7.78;7.28;;;16.70;99.90;;;17.85;85.77;97987.72;5158422;28;20200;-58
2021/09/26 00:16:59;;;;;;;8.57;7.97;;;16.70;99.90;;;17.83;86.05;97985.91;5156104;28;20578;-60
2021/09/26 00:19:32;;;;;;;8.32;7.63;;;16.80;99.90;;;17.77;86.58;97984.03;5160165;28;20199;-58
2021/09/26 00:22:05;;;;;;;7.95;7.35;;;16.70;99.90;;;17.74;86.65;97983.91;5153121;28;20227;-57
2021/09/26 00:24:38;;;;;;;7.80;7.20;;;16.70;99.90;;;17.74;86.98;97978.72;5156882;28;20196;-61
2021/09/26 00:27:12;;;;;;;7.97;7.30;;;16.70;99.90;;;17.74;86.62;97973.56;5159213;28;20210;-55
2021/09/26 00:29:45;;;;;;;7.97;7.22;;;16.70;99.90;;;17.71;86.62;97970.88;5157071;28;20200;-58
2021/09/26 00:32:20;;;;;;;8.38;7.68;;;16.80;99.90;;;17.73;86.23;97977.84;5156507;28;20220;-59
2021/09/26 00:34:53;;;;;;;8.20;7.60;;;16.70;99.90;;;17.70;86.56;97970.00;5156716;28;20201;-60
2021/09/26 00:37:26;;;;;;;8.48;7.78;;;16.70;99.90;;;17.66;87.28;97975.06;5160140;28;20575;-60
2021/09/26 00:39:59;;;;;;;8.05;7.35;;;16.60;99.90;;;17.64;87.07;97979.28;5156439;28;20197;-62
2021/09/26 00:42:33;;;;;;;7.93;7.30;;;16.60;99.90;;;17.65;87.30;97981.03;5162422;28;20215;-60
2021/09/26 00:45:08;;;;;;;7.55;7.00;;;16.60;99.90;;;17.64;86.97;97971.53;5157187;28;20200;-60
2021/09/26 00:47:43;;;;;;;7.40;6.78;;;16.60;99.90;;;17.62;87.27;97968.03;5157138;28;20583;-60
2021/09/26 00:50:18;;;;;;;7.60;7.07;;;16.60;99.90;;;17.60;87.29;97959.31;5159468;28;21759;-58
2021/09/26 00:52:52;;;;;;;7.93;7.32;;;16.60;99.90;;;17.57;87.76;97960.13;5158124;28;20222;-60
2021/09/26 00:55:25;;;;;;;7.53;7.00;;;16.60;99.90;;;17.55;87.70;97960.06;5157107;28;20578;-61
2021/09/26 00:58:00;;;;;;;7.55;7.05;;;16.60;99.90;;;17.52;88.24;97962.56;5158489;28;20233;-63
2021/09/26 01:00:33;;;;;;;7.68;7.07;;;16.50;99.90;;;17.47;88.76;97952.91;5156429;28;20199;-59
2021/09/26 01:03:08;;;;;;;7.70;7.03;;;16.50;99.90;;;17.44;89.01;97958.84;5155460;28;20228;-61
2021/09/26 01:05:41;;;;;;;8.07;7.47;;;16.50;99.90;;;17.44;88.94;97953.69;5156958;28;20234;-61
2021/09/26 01:08:24;;;;;;;8.02;7.38;;;16.50;99.90;;;17.46;88.52;97957.22;5153981;28;20570;-59
2021/09/26 01:11:02;;;;;;;7.72;7.18;;;16.50;99.90;;;17.42;88.36;97954.47;5158487;28;20675;-59
2021/09/26 01:13:57;;;;;;;7.47;6.88;;;16.50;99.90;;;17.46;88.96;97958.94;5158702;28;20220;-60
2021/09/26 01:16:34;;;;;;;7.90;7.30;;;16.50;99.90;;;17.46;89.03;97966.69;5157606;28;20580;-64
2021/09/26 01:19:39;;;;;;;7.72;7.00;;;16.50;99.90;;;17.48;88.42;97965.91;5157883;28;20225;-59
2021/09/26 01:22:19;;;;;;;8.40;7.20;;;16.50;99.90;;;17.45;88.95;97963.19;5159706;28;20218;-62
2021/09/26 01:25:21;;;;;;;7.28;6.68;;;16.50;99.90;;;17.48;88.57;97965.00;5155398;28;20200;-62
2021/09/26 01:28:40;;;;;;;7.07;6.47;;;16.50;99.90;;;17.48;88.75;97971.06;5156439;28;20188;-59
2021/09/26 01:31:18;;;;;;;7.43;6.82;;;16.50;99.90;;;17.51;89.08;97975.44;5156490;28;20200;-61
2021/09/26 01:33:56;;;;;;;7.03;6.50;;;16.50;99.90;;;17.51;88.90;97967.66;5155640;28;20625;-60
2021/09/26 01:36:33;;;;;;;7.47;6.88;;;16.50;99.90;;;17.54;88.20;97981.59;5159004;28;20213;-61
2021/09/26 01:39:17;;;;;;;7.70;7.07;;;16.50;99.90;;;17.50;88.58;97989.19;5156229;28;20207;-59
2021/09/26 01:41:57;;;;;;;7.35;6.80;;;16.50;99.90;;;17.43;88.48;97988.13;5159227;28;20234;-59
2021/09/26 01:44:39;;;;;;;7.63;6.93;;;16.40;99.90;;;17.43;88.41;97985.53;5159514;28;20207;-61
2021/09/26 01:47:18;;;;;;;7.63;7.03;;;16.40;99.90;;;17.39;88.78;97978.50;5160431;28;20287;-59
2021/09/26 01:49:55;;;;;;;7.00;6.50;;;16.40;99.90;;;17.37;88.74;97982.78;5154346;28;20203;-58
2021/09/26 01:52:33;;;;;;;7.57;6.97;;;16.30;99.90;;;17.40;88.76;97984.53;5154164;28;20224;-61
2021/09/26 01:55:09;;;;;;;7.20;6.60;;;16.30;99.90;;;17.34;88.63;97988.72;5153595;28;20287;-60
2021/09/26 01:57:44;;;;;;;7.82;7.18;;;16.30;99.90;;;17.29;88.75;97984.22;5155987;28;20230;-61
2021/09/26 02:00:17;;;;;;;7.32;6.72;;;16.30;99.90;;;17.28;88.44;97985.03;5158501;28;20688;-60
2021/09/26 02:02:52;;;;;;;7.28;6.78;;;16.20;99.90;;;17.21;88.58;97983.09;5156877;28;20238;-59
2021/09/26 02:05:26;;;;;;;7.10;6.60;;;16.20;99.90;;;17.18;88.55;97977.81;5157494;28;20215;-58
2021/09/26 02:08:00;;;;;;;7.95;7.35;;;16.20;99.90;;;17.16;88.60;97979.47;5161013;28;20290;-57
2021/09/26 02:10:35;;;;;;;7.30;6.80;;;16.10;99.90;;;17.14;88.81;97978.53;5160808;28;20228;-59
2021/09/26 02:13:09;;;;;;;7.55;6.95;;;16.10;99.90;;;17.09;89.03;97980.97;5153669;28;20215;-59
2021/09/26 02:15:44;;;;;;;7.40;6.80;;;16.00;99.90;;;17.04;89.10;97983.41;5160819;28;20204;-57
2021/09/26 02:18:20;;;;;;;7.68;7.07;;;16.00;99.90;;;16.96;90.00;97974.50;5156812;28;20254;-60
2021/09/26 02:20:55;;;;;;;7.65;7.05;;;16.00;99.90;;;17.02;89.34;97979.88;5157620;28;20199;-61
2021/09/26 02:23:28;;;;;;;7.50;6.90;;;16.00;99.90;;;16.93;89.84;97978.69;5160499;28;20214;-59
2021/09/26 02:26:02;;;;;;;7.68;7.13;;;15.90;99.90;;;16.94;89.34;97981.34;5153906;28;20728;-60
2021/09/26 02:28:35;;;;;;;7.10;6.60;;;15.90;99.90;;;16.93;90.22;97989.91;5162545;28;20198;-61
2021/09/26 02:31:09;;;;;;;6.93;6.28;;;15.90;99.90;;;16.86;89.75;97985.38;5158630;28;20207;-61
2021/09/26 02:33:45;;;;;;;7.55;6.95;;;15.90;99.90;;;16.81;89.81;97977.44;5153827;28;20290;-59
2021/09/26 02:36:21;;;;;;;7.75;6.75;;;15.80;99.90;;;16.79;90.11;97973.06;5159175;28;20228;-58
2021/09/26 02:38:54;;;;;;;7.18;6.55;;;15.80;99.90;;;16.79;90.53;97970.47;5156555;28;20226;-56
2021/09/26 02:41:38;;;;;;;7.00;6.50;;;15.80;99.90;;;16.81;90.75;97974.00;5157693;28;20635;-58
2021/09/26 02:44:17;;;;;;;6.75;6.25;;;15.90;99.90;;;16.81;91.07;97968.84;5156816;28;20471;-59
2021/09/26 02:46:58;;;;;;;6.97;6.47;;;15.90;99.90;;;16.83;90.91;97980.09;5156438;28;20560;-59
2021/09/26 02:49:33;;;;;;;7.30;6.78;;;15.90;99.90;;;16.83;90.96;97983.56;5161094;28;20203;-61
2021/09/26 02:52:07;;;;;;;6.57;6.07;;;15.90;99.90;;;16.84;90.61;97984.44;5150552;28;20227;-59
2021/09/26 02:54:43;;;;;;;6.43;5.95;;;15.90;99.90;;;16.81;90.90;97985.19;5155268;28;20662;-58
2021/09/26 02:57:16;;;;;;;7.55;6.95;;;15.90;99.90;;;16.80;91.00;97982.59;5155626;28;20224;-57
2021/09/26 02:59:50;;;;;;;7.15;6.30;;;15.90;99.90;;;16.83;90.78;97962.03;5156200;28;20205;-57
2021/09/26 03:02:30;;;;;;;6.85;6.35;;;15.90;99.90;;;16.84;90.51;97963.78;5152173;28;20227;-56
2021/09/26 03:05:06;;;;;;;7.38;6.78;;;15.90;99.90;;;16.85;90.65;97947.44;5162003;28;20195;-59
2021/09/26 03:07:39;;;;;;;6.90;6.40;;;15.90;99.90;;;16.86;90.30;97951.81;5156034;28;20204;-59
2021/09/26 03:10:12;;;;;;;6.68;6.18;;;15.90;99.90;;;16.88;90.75;97955.28;5153422;28;20211;-59
2021/09/26 03:12:45;;;;;;;6.47;6.07;;;15.90;99.90;;;16.89;89.99;97957.06;5155820;28;20222;-59
2021/09/26 03:15:18;;;;;;;6.88;6.28;;;15.90;99.90;;;16.89;90.09;97951.91;5153695;28;20293;-57
2021/09/26 03:17:52;;;;;;;6.45;5.95;;;15.90;99.90;;;16.90;90.44;97945.91;5152708;28;20239;-60
2021/09/26 03:20:26;;;;;;;6.82;6.32;;;15.90;99.90;;;16.88;89.96;97950.13;5157581;28;20204;-57
2021/09/26 03:23:00;;;;;;;7.00;6.28;;;15.90;99.90;;;16.87;89.99;97950.97;5153783;28;20698;-58
2021/09/26 03:25:33;;;;;;;6.85;6.25;;;15.90;99.90;;;16.86;90.29;97957.84;5151051;28;20210;-57
2021/09/26 03:28:07;;;;;;;6.63;6.13;;;15.90;99.90;;;16.82;90.25;97944.75;5162120;28;20195;-60
2021/09/26 03:30:40;;;;;;;7.22;6.53;;;15.80;99.90;;;16.71;89.98;97940.91;5152155;28;20291;-61
2021/09/26 03:33:13;;;;;;;6.88;6.38;;;15.80;99.90;;;16.68;90.79;97941.66;5160490;28;20763;-57
2021/09/26 03:35:48;;;;;;;6.88;6.22;;;15.80;99.90;;;16.73;90.63;97939.25;5148993;28;20204;-61
2021/09/26 03:38:21;;;;;;;6.95;6.35;;;15.80;99.90;;;16.79;91.11;97944.66;5149287;28;20215;-61
2021/09/26 03:40:54;;;;;;;6.75;6.25;;;15.80;99.90;;;16.76;91.18;97944.53;5147429;28;20199;-59
2021/09/26 03:43:27;;;;;;;7.47;6.93;;;15.90;99.90;;;16.78;91.70;97941.22;5157071;28;20325;-61
2021/09/26 03:46:00;;;;;;;7.22;6.72;;;15.90;99.90;;;16.78;91.58;97937.75;5146585;28;20230;-58
2021/09/26 03:48:33;;;;;;;6.93;6.32;;;15.90;99.90;;;16.74;92.28;97946.16;5150841;28;20291;-61
2021/09/26 03:51:08;;;;;;;6.63;6.03;;;15.80;99.90;;;16.77;91.93;97943.72;5148702;28;20524;-58
2021/09/26 03:53:41;;;;;;;7.28;6.68;;;15.90;99.90;;;16.77;91.25;97928.22;5152878;28;20214;-59
2021/09/26 03:56:14;;;;;;;7.32;6.72;;;15.80;99.90;;;16.65;91.73;97932.16;5147647;28;20341;-61
2021/09/26 03:58:47;;;;;;;7.93;7.30;;;15.80;99.90;;;16.62;93.62;97926.84;5150236;28;20258;-57
2021/09/26 04:01:20;;;;;;;7.82;7.22;;;15.80;99.90;;;16.65;93.30;97942.47;5147869;28;20192;-60
2021/09/26 04:03:54;;;;;;;8.73;7.93;;;15.80;99.90;;;16.66;93.02;97939.06;5144271;28;20200;-59
2021/09/26 04:06:28;;;;;;;8.38;7.68;;;15.80;99.90;;;16.53;93.43;97936.88;5151465;28;20226;-63
2021/09/26 04:09:01;;;;;;;8.10;7.50;;;15.80;99.90;;;16.49;94.38;97927.28;5154415;28;20200;-59
2021/09/26 04:11:35;;;;;;;7.70;7.10;;;15.70;99.90;;;16.50;93.98;97928.16;5161726;28;20758;-59
2021/09/26 04:14:09;;;;;;;7.72;7.18;;;15.70;99.90;;;16.50;95.21;97920.41;5151355;28;20575;-58
2021/09/26 04:16:42;;;;;;;6.78;6.28;;;15.70;99.90;;;16.43;94.87;97925.34;5158314;28;20286;-60
2021/09/26 04:19:15;;;;;;;8.93;8.00;;;15.70;99.90;;;16.47;95.66;97931.50;5161757;28;20222;-57
2021/09/26 04:21:50;;;;;;;7.75;7.15;;;15.70;99.90;;;16.47;95.96;97935.78;5156773;28;20223;-60
2021/09/26 04:24:23;;;;;;;8.00;7.40;;;15.60;99.90;;;16.43;96.54;97929.66;5161607;28;20195;-58
2021/09/26 04:26:56;;;;;;;7.93;7.28;;;15.70;99.90;;;16.43;96.21;97922.78;5157391;28;20311;-60
2021/09/26 04:29:29;;;;;;;6.97;6.47;;;15.70;99.90;;;16.40;96.08;97927.84;5156682;28;20200;-59
2021/09/26 04:32:04;;;;;;;7.80;7.20;;;15.60;99.90;;;16.43;96.47;97924.50;5157245;28;20218;-61
2021/09/26 04:34:37;;;;;;;7.28;6.78;;;15.70;99.90;;;16.43;96.05;97922.78;5153092;28;20219;-58
2021/09/26 04:37:11;;;;;;;8.23;7.53;;;15.60;99.90;;;16.43;96.11;97920.19;5158101;28;20203;-59
2021/09/26 04:39:44;;;;;;;7.50;7.00;;;15.60;99.90;;;16.42;96.40;97914.97;5158917;28;20206;-61
2021/09/26 04:42:18;;;;;;;7.97;7.38;;;15.60;99.90;;;16.46;96.64;97919.44;5159264;28;20223;-58
2021/09/26 04:44:52;;;;;;;8.05;7.32;;;15.70;99.90;;;16.46;96.59;97924.59;5154151;28;20647;-57
2021/09/26 04:47:25;;;;;;;8.05;7.40;;;15.70;99.90;;;16.44;96.73;97914.19;5154875;28;20283;-56
2021/09/26 04:49:58;;;;;;;7.88;7.28;;;15.60;99.90;;;16.39;96.58;97910.56;5152446;28;20192;-58
2021/09/26 04:52:32;;;;;;;7.80;7.20;;;15.60;99.90;;;16.35;96.37;97915.59;5155322;28;20227;-57
2021/09/26 04:55:07;;;;;;;7.72;7.13;;;15.50;99.90;;;16.38;96.22;97915.69;5149179;28;20777;-56
2021/09/26 04:57:40;;;;;;;7.88;7.28;;;15.50;99.90;;;16.38;96.66;97913.13;5156052;28;20213;-57
2021/09/26 05:00:15;;;;;;;7.97;7.30;;;15.60;99.90;;;16.39;96.71;97923.47;5156798;28;20238;-59
2021/09/26 05:02:48;;;;;;;7.00;6.50;;;15.60;99.90;;;16.41;96.47;97915.81;5157771;28;20226;-59
2021/09/26 05:05:21;;;;;;;7.40;6.90;;;15.50;99.90;;;16.39;96.60;97920.03;5153567;28;20203;-57
2021/09/26 05:07:56;;;;;;;7.80;7.10;;;15.50;99.90;;;16.31;96.94;97927.50;5154659;28;20254;-56
2021/09/26 05:10:31;;;;;;;7.60;7.00;;;15.50;99.90;;;16.30;97.03;97930.91;5155203;28;20203;-59
2021/09/26 05:13:04;;;;;;;7.20;6.68;;;15.40;99.90;;;16.26;96.22;97931.63;5157349;28;20301;-60
2021/09/26 05:15:37;;;;;;;6.68;6.18;;;15.40;99.90;;;16.24;96.63;97932.38;5155694;28;20251;-61
2021/09/26 05:18:12;;;;;;;7.68;7.18;;;15.40;99.90;;;16.20;96.44;97927.13;5159053;28;20203;-59
2021/09/26 05:20:45;;;;;;;7.97;7.35;;;15.30;99.90;;;16.17;96.78;97932.19;5154331;28;20199;-59
2021/09/26 05:23:20;;;;;;;8.90;8.20;;;15.30;99.90;;;16.19;96.47;97929.63;5152871;28;20247;-60
2021/09/26 05:25:54;;;;;;;8.15;7.50;;;15.40;99.90;;;16.18;96.82;97938.22;5151109;28;20290;-59
2021/09/26 05:28:27;;;;;;;7.85;7.35;;;15.40;99.90;;;16.22;96.77;97945.22;5154770;28;20211;-60
2021/09/26 05:31:00;;;;;;;7.90;7.30;;;15.30;99.90;;;16.20;96.71;97942.59;5157169;28;20203;-57
2021/09/26 05:33:34;;;;;;;7.60;7.00;;;15.30;99.90;;;16.23;96.43;97947.00;5149577;28;20226;-56
2021/09/26 05:36:07;;;;;;;8.20;7.50;;;15.30;99.90;;;16.28;95.99;97944.56;5154380;28;20207;-58
2021/09/26 05:38:41;;;;;;;8.10;7.50;;;15.30;99.90;;;16.30;95.38;97942.91;5151708;28;20223;-58
2021/09/26 05:41:14;;;;;;;7.88;7.22;;;15.30;99.90;;;16.28;95.13;97949.72;5152486;28;20203;-59
2021/09/26 05:43:47;;;;;;;8.32;7.68;;;15.30;99.90;;;16.30;95.07;97956.69;5150110;28;20215;-58
2021/09/26 05:46:20;;;;;;;8.05;7.38;;;15.30;99.90;;;16.26;95.05;97956.53;5155943;28;20287;-55
2021/09/26 05:48:53;;;;;;;8.70;8.00;;;15.30;99.90;;;16.24;94.98;97958.19;5156969;28;20294;-57
2021/09/26 05:51:27;;;;;;;7.70;7.10;;;15.30;99.90;;;16.28;94.75;97962.63;5149068;28;20211;-57
2021/09/26 05:54:01;;;;;;;7.57;6.97;;;15.30;99.90;;;16.27;94.68;97961.75;5158194;28;20209;-60
2021/09/26 05:56:34;;;;;;;8.50;7.80;;;15.30;99.90;;;16.30;94.57;97963.56;5154256;28;20207;-57
2021/09/26 05:59:07;;;;;;;8.40;7.75;;;15.30;99.90;;;16.33;94.92;97953.34;5150976;28;20225;-54
2021/09/26 06:01:40;;;;;;;7.85;7.30;;;15.30;99.90;;;16.35;94.33;97962.03;5146651;28;20275;-61
2021/09/26 06:04:13;;;;;;;7.85;7.25;;;15.30;99.90;;;16.38;94.17;97962.13;5160400;28;20199;-55
2021/09/26 06:06:47;;;;;;;7.68;7.07;;;15.30;99.90;;;16.42;94.03;97953.66;5162419;28;20533;-60
2021/09/26 06:09:21;;;;;;;7.20;6.70;;;15.40;99.90;;;16.52;93.57;97955.75;5164897;28;20196;-58
2021/09/26 06:11:54;;;;;;;7.57;6.97;;;15.50;99.90;;;16.69;93.60;97960.66;5162932;28;20229;-57
2021/09/26 06:14:27;;;;;;;7.93;7.35;;;15.60;99.90;;;16.85;92.72;97950.03;5164303;28;20231;-59
2021/09/26 06:17:00;;;;;;;7.97;7.28;;;15.80;99.90;;;17.05;92.07;97953.28;5161903;28;20278;-57
2021/09/26 06:19:34;;;;;;;7.97;7.38;;;15.90;99.90;;;17.37;90.41;97954.34;5163068;28;20306;-56
2021/09/26 06:22:07;;;;;;;7.65;7.15;;;16.20;99.90;;;17.76;88.56;97958.97;5155246;28;20221;-57
2021/09/26 06:24:41;;;;;;;7.70;7.10;;;16.40;99.90;;;18.05;86.50;97953.81;5162219;28;20200;-60
2021/09/26 06:27:15;;;;;;;7.60;7.00;;;16.60;99.90;;;18.33;84.73;97942.56;5162810;28;20286;-58
2021/09/26 06:29:48;;;;;;;6.90;6.30;;;16.80;99.90;;;18.61;83.18;97946.78;5161798;28;20664;-57
2021/09/26 06:32:22;;;;;;;7.30;6.80;;;17.00;99.90;;;18.83;82.35;97948.25;5156945;28;20714;-58
2021/09/26 06:34:55;;;;;;;6.78;6.28;;;17.10;99.90;;;19.04;81.31;97953.09;5159299;28;20563;-57
2021/09/26 06:37:29;;;;;;;7.25;6.55;;;17.30;99.90;;;19.27;80.01;97957.13;5157266;28;20652;-58
2021/09/26 06:40:05;;;;;;;7.15;6.63;;;17.60;99.90;;;19.61;78.07;97949.28;5160649;28;20224;-58
2021/09/26 06:42:39;;;;;;;7.10;6.50;;;17.70;99.90;;;19.84;77.58;97960.22;5157042;28;20665;-58
2021/09/26 06:45:13;;;;;;;7.30;6.80;;;17.90;99.90;;;20.11;76.23;97958.19;5158286;28;20585;-56
2021/09/26 06:47:46;;;;;;;6.75;6.30;;;18.10;99.90;;;20.32;75.04;97956.91;5160323;28;20222;-57
2021/09/26 06:50:19;;;;;;;7.07;6.57;;;18.30;99.90;;;20.41;74.65;97954.47;5158105;28;20567;-56
2021/09/26 06:52:52;;;;;;;6.78;6.28;;;18.40;99.90;;;20.38;74.83;97960.50;5156911;28;20223;-59
2021/09/26 06:55:26;;;;;;;6.85;6.32;;;18.60;99.90;;;20.38;75.02;97954.44;5158534;28;20203;-57
2021/09/26 06:57:59;;;;;;;6.97;6.50;;;18.70;99.90;;;20.47;74.45;97959.78;5157934;28;20199;-58
2021/09/26 07:00:32;;;;;;;8.35;7.55;;;18.80;99.90;;;20.57;73.88;97959.13;5154894;28;20223;-61
2021/09/26 07:03:05;;;;;;;8.30;7.68;;;19.00;99.90;;;20.61;73.42;97958.38;5156705;28;20235;-59
2021/09/26 07:05:38;;;;;;;7.50;6.90;;;19.10;99.90;;;20.50;73.32;97970.25;5156306;28;20200;-57
2021/09/26 07:08:11;;;;;;;7.90;7.13;;;19.10;99.90;;;20.68;73.57;97975.81;5156871;28;20207;-56
2021/09/26 07:10:46;;;;;;;7.47;6.88;;;19.20;99.90;;;20.93;72.27;97966.75;5156858;28;20202;-58
2021/09/26 07:13:19;;;;;;;7.82;7.22;;;19.30;99.90;;;21.03;71.98;97975.59;5157452;28;20314;-61
2021/09/26 07:15:52;;;;;;;8.07;7.47;;;19.50;99.90;;;21.14;71.97;97976.63;5154895;28;20200;-57
2021/09/26 07:18:25;;;;;;;7.88;7.20;;;19.50;99.90;;;21.23;71.71;97978.53;5148638;28;20203;-58
2021/09/26 07:20:58;;;;;;;7.57;6.97;;;19.60;99.90;;;21.26;71.34;97988.09;5150179;28;20223;-60
2021/09/26 07:23:32;;;;;;;7.03;6.53;;;19.60;99.90;;;21.22;71.62;97986.31;5154105;28;20307;-58
2021/09/26 07:26:06;;;;;;;7.18;6.65;;;19.60;99.90;;;21.32;71.52;97980.41;5154639;28;20208;-57
2021/09/26 07:28:40;;;;;;;7.80;7.20;;;19.70;99.90;;;21.41;71.19;97980.59;5154146;28;20191;-54
2021/09/26 07:31:14;;;;;;;8.45;7.78;;;19.80;99.90;;;21.39;70.76;97979.69;5153642;28;20520;-58
2021/09/26 07:33:48;;;;;;;8.50;7.80;;;20.00;99.90;;;21.51;70.91;97976.41;5157786;28;20211;-63
2021/09/26 07:36:21;;;;;;;7.82;7.20;;;20.20;99.90;;;21.74;70.27;97979.34;5161782;28;20195;-61
2021/09/26 07:38:54;;;;;;;7.60;7.00;;;20.30;99.90;;;21.99;69.93;97984.06;5161717;28;20203;-60
2021/09/26 07:41:28;;;;;;;7.93;7.28;;;20.60;99.90;;;22.07;69.62;97994.59;5155453;28;20230;-60
2021/09/26 07:44:01;;;;;;;7.60;7.00;;;20.70;99.90;;;22.24;68.90;98002.66;5151732;28;20661;-61
2021/09/26 07:46:34;;;;;;;8.07;7.38;;;20.90;99.90;;;22.48;68.08;97999.47;5152894;28;20338;-59
2021/09/26 07:49:07;;;;;;;7.15;6.57;;;21.20;99.90;;;22.74;67.20;97999.78;5156327;28;20215;-59
2021/09/26 07:51:40;;;;;;;7.70;7.00;;;21.30;99.90;;;22.83;66.89;98004.22;5153116;28;20223;-57
2021/09/26 07:54:15;;;;;;;7.30;6.80;;;21.40;99.90;;;22.86;66.83;98005.16;5151350;28;20199;-56
2021/09/26 07:56:50;;;;;;;7.43;6.75;;;21.50;99.90;;;22.88;67.16;98002.53;5152432;28;20245;-60
2021/09/26 07:59:23;;;;;;;8.07;7.38;;;21.60;99.90;;;23.02;66.49;98000.09;5157235;28;20224;-59
2021/09/26 08:01:56;;;;;;;7.03;6.47;;;21.70;99.90;;;23.14;66.30;97995.00;5158352;28;20602;-59
2021/09/26 08:04:31;;;;;;;7.20;6.55;;;21.90;99.90;;;23.27;65.84;97996.00;5150850;28;20470;-59
2021/09/26 08:07:05;;;;;;;7.43;6.82;;;22.00;99.90;;;23.42;65.47;98001.34;5151682;28;20217;-56
2021/09/26 08:09:39;;;;;;;7.57;7.00;;;22.20;99.90;;;23.65;64.34;98014.56;5156959;28;20286;-59
2021/09/26 08:12:13;;;;;;;7.82;6.90;;;22.40;99.90;;;23.90;63.58;98012.19;5147225;28;20222;-58
2021/09/26 08:14:46;;;;;;;7.80;7.10;;;22.60;99.90;;;24.11;62.40;98020.13;5155659;28;20364;-57
2021/09/26 08:17:19;;;;;;;7.32;6.60;;;22.90;99.90;;;24.22;62.41;98023.69;5157211;28;20592;-61
2021/09/26 08:19:53;;;;;;;6.82;6.25;;;23.00;99.90;;;24.36;61.32;98022.91;5151765;28;20663;-58
2021/09/26 08:22:27;;;;;;;6.78;6.13;;;23.10;99.90;;;24.53;60.79;98023.88;5152953;28;20229;-62
2021/09/26 08:25:02;;;;;;;7.40;6.72;;;23.40;99.90;;;24.84;60.15;98029.19;5151358;28;20199;-59
2021/09/26 08:27:37;;;;;;;7.05;6.55;;;23.60;99.90;;;24.91;58.84;98030.97;5155235;28;20211;-59
2021/09/26 08:30:11;;;;;;;7.18;6.47;;;23.60;99.90;;;24.80;59.61;98025.69;5153521;28;20200;-60
2021/09/26 08:32:46;;;;;;;7.07;6.40;;;23.40;99.90;;;24.80;59.97;98030.94;5155873;28;20224;-61
2021/09/26 08:35:19;;;;;;;7.10;6.40;;;23.40;99.90;;;24.83;60.23;98032.69;5158128;28;20209;-57
2021/09/26 08:37:52;;;;;;;6.50;5.90;;;23.30;99.90;;;24.85;60.31;98044.91;5151777;28;20203;-57
2021/09/26 08:40:26;;;;;;;6.65;6.05;;;23.20;99.90;;;24.57;60.34;98053.50;5149668;28;20215;-59
2021/09/26 08:43:00;;;;;;;6.93;6.30;;;23.10;99.90;;;24.55;60.01;98053.47;5150136;28;20525;-61
2021/09/26 08:45:40;;;;;;;7.10;6.50;;;22.90;99.90;;;24.46;61.49;98054.31;5150602;28;20194;-61
2021/09/26 08:48:14;;;;;;;6.82;6.22;;;22.80;99.90;;;24.31;62.27;98063.78;5154080;28;20207;-59
2021/09/26 08:50:47;;;;;;;6.15;5.65;;;22.70;99.90;;;24.30;63.20;98067.28;5154857;28;20207;-57
2021/09/26 08:53:24;;;;;;;6.93;6.18;;;22.60;99.90;;;24.18;64.15;98076.78;5158648;28;20223;-60
2021/09/26 08:55:58;;;;;;;7.05;6.43;;;22.60;99.90;;;24.18;64.15;98079.41;5155116;28;20203;-57
2021/09/26 08:58:32;;;;;;;7.43;6.47;;;22.60;99.90;;;24.22;64.19;98075.06;5159599;28;20203;-59
2021/09/26 09:01:05;;;;;;;7.43;6.72;;;22.60;99.90;;;24.37;63.99;98089.97;5151118;28;20226;-61
2021/09/26 09:03:39;;;;;;;8.02;7.40;;;22.90;99.90;;;24.43;63.38;98096.13;5154458;28;20219;-57
2021/09/26 09:06:12;;;;;;;7.78;7.07;;;22.90;99.90;;;24.34;64.09;98106.47;5148247;28;20321;-59
2021/09/26 09:08:45;;;;;;;7.60;6.53;;;22.90;99.90;;;24.34;64.00;98105.63;5154822;28;20204;-61
2021/09/26 09:11:22;;;;;;;7.40;6.60;;;23.00;99.90;;;24.58;63.44;98105.81;5140294;28;20773;-59
2021/09/26 09:14:00;;;;;;;7.25;6.55;;;23.20;99.90;;;24.81;62.85;98116.38;5140398;28;20625;-62
2021/09/26 09:16:34;;;;;;;7.88;7.18;;;23.40;99.90;;;24.95;62.56;98116.41;5144637;28;20202;-62
2021/09/26 09:19:21;;;;;;;7.65;6.95;;;23.50;99.90;;;25.02;62.15;98115.59;5141197;28;20675;-62
2021/09/26 09:22:06;;;;;;;7.72;6.68;;;23.60;99.90;;;25.15;61.21;98120.03;5156116;28;20284;-58
2021/09/26 09:24:41;;;;;;;7.20;6.60;;;23.50;99.90;;;25.18;60.88;98113.91;5147942;28;20818;-59
2021/09/26 09:27:14;;;;;;;7.05;6.35;;;23.30;99.90;;;24.93;61.43;98120.78;5151920;28;20197;-59
2021/09/26 09:29:48;;;;;;;7.38;6.78;;;23.30;99.90;;;24.75;62.68;98112.84;5155576;28;20225;-59
2021/09/26 09:32:23;;;;;;;7.05;6.35;;;23.20;99.90;;;24.58;62.60;98116.25;5151132;28;20713;-58
2021/09/26 09:34:56;;;;;;;7.57;6.95;;;23.00;99.90;;;24.40;63.28;98126.56;5158069;28;20685;-59
2021/09/26 09:37:29;;;;;;;8.05;7.13;;;22.80;99.90;;;24.27;64.14;98128.22;5155507;28;20202;-60
2021/09/26 09:40:10;;;;;;;7.38;6.68;;;22.70;99.90;;;24.18;62.96;98135.97;5151966;28;20200;-59
2021/09/26 09:42:45;;;;;;;6.95;6.25;;;22.40;99.90;;;24.00;62.53;98131.50;5155730;28;20225;-56
2021/09/26 09:45:24;;;;;;;8.15;6.88;;;22.40;99.90;;;23.75;63.58;98131.31;5153430;28;20210;-58
2021/09/26 09:48:12;;;;;;;8.13;7.28;;;22.30;99.90;;;23.77;63.67;98129.56;5155811;28;20199;-55
2021/09/26 09:50:56;;;;;;;8.43;7.13;;;22.30;99.90;;;23.76;63.63;98133.03;5154433;28;20620;-59
2021/09/26 09:53:37;;;;;;;8.10;7.07;;;22.30;99.90;;;23.72;63.95;98126.06;5161579;28;20218;-59
2021/09/26 09:56:17;;;;;;;7.60;6.97;;;22.30;99.90;;;23.89;62.54;98139.22;5151167;28;20206;-55
2021/09/26 09:58:54;;;;;;;8.60;7.50;;;22.30;99.90;;;23.85;62.76;98139.22;5156755;28;20663;-59
2021/09/26 10:01:31;;;;;;;8.38;7.53;;;22.30;99.90;;;23.89;62.76;98134.00;5148006;28;20226;-58
2021/09/26 10:04:06;;;;;;;7.65;6.82;;;22.40;99.90;;;23.99;60.84;98135.84;5150592;28;20574;-57
2021/09/26 10:06:41;;;;;;;9.52;7.68;;;22.40;99.90;;;23.91;60.30;98142.75;5154792;28;20199;-62
2021/09/26 10:09:22;;;;;;;8.25;7.57;;;22.40;99.90;;;23.89;60.25;98133.13;5148251;28;20195;-60
2021/09/26 10:11:58;;;;;;;8.23;7.53;;;22.40;99.90;;;23.64;60.91;98122.47;5152988;28;20592;-59
2021/09/26 10:14:34;;;;;;;8.50;7.70;;;22.30;99.90;;;23.63;61.01;98131.13;5147176;28;20298;-60
2021/09/26 10:17:10;;;;;;;8.52;7.70;;;22.20;99.90;;;23.57;61.74;98131.06;5146073;28;20664;-58
2021/09/26 10:19:43;;;;;;;8.50;7.78;;;22.10;99.90;;;23.58;61.19;98131.09;5150377;28;20203;-61
2021/09/26 10:22:17;;;;;;;8.27;7.55;;;22.10;99.90;;;23.61;61.41;98135.47;5155020;28;20234;-62
2021/09/26 10:24:53;;;;;;;8.90;8.20;;;22.10;99.90;;;23.41;62.33;98134.38;5145187;28;20583;-55
2021/09/26 10:27:31;;;;;;;9.75;8.90;;;22.00;99.90;;;23.17;64.90;98136.72;5147098;28;20192;-58
2021/09/26 10:30:07;;;;;;;10.02;9.07;;;21.70;99.90;;;23.06;65.59;98132.25;5145285;28;20200;-60
2021/09/26 10:32:43;;;;;;;10.57;9.70;;;21.60;99.90;;;22.90;67.08;98139.00;5145187;28;20223;-60
2021/09/26 10:35:16;;;;;;;10.88;9.98;;;21.60;99.90;;;22.88;67.99;98149.41;5146556;28;20674;-58
2021/09/26 10:37:51;;;;;;;11.32;10.32;;;21.40;99.90;;;22.77;67.33;98150.97;5153667;28;20204;-59
2021/09/26 10:40:24;;;;;;;11.15;10.20;;;21.30;99.90;;;22.63;67.41;98152.53;5145244;28;20273;-59
2021/09/26 10:43:18;;;;;;;11.35;10.45;;;21.20;99.90;;;22.51;69.09;98154.97;5155093;28;20318;-57
2021/09/26 10:46:24;;;;;;;12.35;11.23;;;21.20;99.90;;;22.36;69.92;98145.19;5148722;28;20233;-58
2021/09/26 10:49:12;;;;;;;11.55;10.60;;;21.00;99.90;;;22.23;70.89;98146.72;5146942;28;20590;-59
2021/09/26 10:51:52;;;;;;;12.85;11.75;;;20.90;99.90;;;21.97;72.36;98138.47;5149964;28;20329;-57